Tekakwitha, South Dakota
Current Conditions -  °F | °C
As of 2:36 AM on Sunday 26 Oct 2014 (Local Time) from KETH Reporting Station
Clear Clear  
Wind Chill: -2°   Ceiling: Unl
Heat Index:   Visibility: 10mi
Dew Point: -3°   Wind: 7mph
Humidity: 75%   Direction: 140°SE
Pressure: 30"   Gusts: NA
Location:  45.7041°N, 96.9842°W
Report Text: KETH 260736Z AUTO 14006KT 10SM CLR 01/M03 A3000 RMK AO2
Loading
Personal Weather Stations






























Interactive Weather Map
Tropical Storm Tracking
New forecast layout! Learn more

10-Day Weather Forecast

Advertisements
Track Severe Weather on mobile